KPNC/PNC METAR and TAF weather

Enter ICAO airport designator
Station Type Date Time Source
KPNC METAR 2020/09/25 18:53 UTC NOAA

KPNC 251853Z AUTO 17010G18KT 10SM CLR 29/18 A2986 RMK AO2 SLP097 T02940178


Station Type Date Time Source
KPNC Decoded METAR 2020/09/25 18:53 UTC NOAA

PONCA CITY MUNICIPAL AIRPORT, OK, United States (KPNC) 36-44N 97-06W 308M
Sep 25, 2020 - 02:53 PM EDT / 2020.09.25 1853 UTC
Wind: from the S (170 degrees) at 12 MPH (10 KT) gusting to 21 MPH (18 KT):0
Visibility: 10 mile(s):0
Sky conditions: clear
Temperature: 84.9 F (29.4 C)
Dew Point: 64.0 F (17.8 C)
Relative Humidity: 49%
Pressure (altimeter): 29.86 in. Hg (1011 hPa)
ob: KPNC 251853Z AUTO 17010G18KT 10SM CLR 29/18 A2986 RMK AO2 SLP097 T02940178
cycle: 19

Station Type Date Time Source
KPNC TAF 2020/09/25 18:22 UTC NOAA

TAF KPNC 251720Z 2518/2618 18012G18KT P6SM SKC
FM260000 17010KT P6SM SKC

Example: see airport list